Time;durP1;ratioP1;P1;durP2;ratioP2;P2;SDS_P1;SDS_P2;PMS_P1;PMS_P2;Temp;Humidity;BMP_temperature;BMP_pressure;BME280_temperature;BME280_humidity;BME280_pressure;Samples;Min_cycle;Max_cycle;Signal;HPM_P1;HPM_P2
2023/07/04 00:01:19;;;;;;;4.95;4.45;;;22.50;83.80;;;;;;5034620;28;20079;-85
2023/07/04 00:03:53;;;;;;;4.32;3.92;;;22.50;83.80;;;;;;5034929;28;20036;-85
2023/07/04 00:06:20;;;;;;;4.35;3.83;;;22.50;83.90;;;;;;5034565;28;20022;-85
2023/07/04 00:08:46;;;;;;;5.10;4.60;;;22.50;83.80;;;;;;5034309;28;20033;-85
2023/07/04 00:11:12;;;;;;;4.93;4.30;;;22.50;83.70;;;;;;5036258;28;20102;-85
2023/07/04 00:13:39;;;;;;;5.38;4.30;;;22.50;83.60;;;;;;5035046;28;20036;-85
2023/07/04 00:16:07;;;;;;;5.00;4.50;;;22.50;83.30;;;;;;5034199;28;20037;-85
2023/07/04 00:18:34;;;;;;;4.57;3.83;;;22.50;83.10;;;;;;5034414;28;20036;-85
2023/07/04 00:21:06;;;;;;;4.80;4.10;;;22.40;83.00;;;;;;5034449;28;20032;-85
2023/07/04 00:23:34;;;;;;;5.30;4.80;;;22.40;83.00;;;;;;5034144;28;20026;-85
2023/07/04 00:26:01;;;;;;;4.90;4.43;;;22.40;83.10;;;;;;5033983;28;20048;-85
2023/07/04 00:28:27;;;;;;;4.90;4.40;;;22.30;83.00;;;;;;5033653;28;20026;-85
2023/07/04 00:30:55;;;;;;;5.40;4.90;;;22.30;83.10;;;;;;5034299;28;20044;-85
2023/07/04 00:33:23;;;;;;;5.88;4.95;;;22.30;83.20;;;;;;5035156;28;20025;-85
2023/07/04 00:35:57;;;;;;;5.50;5.00;;;22.30;83.20;;;;;;5033803;28;20025;-85
2023/07/04 00:38:23;;;;;;;4.95;4.45;;;22.30;83.20;;;;;;5034057;28;20032;-85
2023/07/04 00:40:51;;;;;;;5.53;4.88;;;22.20;83.20;;;;;;5033758;28;20527;-85
2023/07/04 00:43:19;;;;;;;5.18;4.68;;;22.20;83.30;;;;;;5033023;28;20036;-85
2023/07/04 00:45:48;;;;;;;5.40;4.90;;;22.20;83.30;;;;;;5033446;28;20029;-84
2023/07/04 00:48:15;;;;;;;5.20;4.70;;;22.10;83.30;;;;;;5033268;28;20025;-85
2023/07/04 00:50:45;;;;;;;5.55;5.05;;;22.10;83.30;;;;;;5032670;28;20427;-84
2023/07/04 00:53:13;;;;;;;5.65;5.05;;;22.10;83.30;;;;;;5033076;28;20025;-84
2023/07/04 00:55:45;;;;;;;5.55;5.05;;;22.10;83.40;;;;;;5032941;28;20138;-84
2023/07/04 00:58:14;;;;;;;5.35;4.85;;;22.10;83.40;;;;;;5033056;28;20048;-84
2023/07/04 01:00:39;;;;;;;6.07;5.47;;;22.00;83.30;;;;;;5032614;28;20021;-85
2023/07/04 01:03:10;;;;;;;5.68;5.05;;;22.00;83.30;;;;;;5033699;28;20033;-84
2023/07/04 01:06:00;;;;;;;5.80;5.07;;;22.00;83.30;;;;;;5033058;28;20036;-84
2023/07/04 01:08:33;;;;;;;5.43;4.93;;;22.00;83.20;;;;;;5032313;28;20117;-84
2023/07/04 01:11:04;;;;;;;6.22;5.63;;;22.00;83.40;;;;;;5032669;28;20501;-85
2023/07/04 01:13:35;;;;;;;;;;;22.00;83.50;;;;;;5033220;28;20485;-85
2023/07/04 01:16:09;;;;;;;6.28;5.35;;;21.90;83.30;;;;;;5034667;28;19905;-84
2023/07/04 01:18:41;;;;;;;6.22;5.28;;;21.90;83.60;;;;;;5032371;28;20037;-85
2023/07/04 01:21:09;;;;;;;5.93;5.28;;;21.90;83.70;;;;;;5033101;28;20025;-85
2023/07/04 01:23:54;;;;;;;6.28;5.68;;;21.90;83.80;;;;;;5032624;28;20091;-84
2023/07/04 01:26:31;;;;;;;6.13;5.53;;;21.90;83.80;;;;;;5033425;28;20041;-86
2023/07/04 01:28:59;;;;;;;5.72;5.22;;;21.90;84.10;;;;;;5021708;28;20032;-86
2023/07/04 01:31:26;;;;;;;5.85;5.25;;;21.90;84.10;;;;;;5016255;28;20508;-86
2023/07/04 01:33:55;;;;;;;6.47;5.57;;;21.90;84.20;;;;;;5033473;28;20033;-86
2023/07/04 01:36:24;;;;;;;6.25;5.65;;;21.90;84.30;;;;;;5032887;28;20068;-86
2023/07/04 01:38:51;;;;;;;6.03;5.43;;;21.90;84.30;;;;;;5033458;28;20029;-86
2023/07/04 01:41:21;;;;;;;6.70;5.82;;;21.90;84.40;;;;;;5036755;28;20116;-86
2023/07/04 01:43:52;;;;;;;5.85;5.30;;;21.90;84.50;;;;;;5035292;28;20397;-86
2023/07/04 01:46:20;;;;;;;7.13;5.90;;;21.90;84.70;;;;;;5037321;28;20393;-86
2023/07/04 01:48:48;;;;;;;6.22;5.50;;;21.90;85.00;;;;;;5038011;28;20021;-86
2023/07/04 01:51:14;;;;;;;6.05;5.45;;;21.90;85.10;;;;;;5036152;28;20025;-86
2023/07/04 01:53:42;;;;;;;6.20;5.60;;;21.90;85.30;;;;;;5035674;28;20052;-86
2023/07/04 01:56:08;;;;;;;6.18;5.57;;;21.90;85.50;;;;;;5037088;28;20109;-86
2023/07/04 01:58:33;;;;;;;6.05;5.45;;;21.90;85.70;;;;;;5035859;28;20146;-86
2023/07/04 02:01:01;;;;;;;6.63;5.78;;;21.90;85.70;;;;;;5035760;28;20037;-86
2023/07/04 02:03:27;;;;;;;6.70;5.43;;;21.90;85.80;;;;;;5035045;28;20444;-86
2023/07/04 02:05:56;;;;;;;6.32;5.72;;;22.00;86.00;;;;;;5036128;28;20033;-86
2023/07/04 02:08:22;;;;;;;6.50;5.90;;;21.90;86.10;;;;;;5035219;28;20045;-86
2023/07/04 02:10:48;;;;;;;6.55;5.95;;;22.00;86.30;;;;;;5035374;28;20036;-86
2023/07/04 02:13:13;;;;;;;6.32;5.47;;;22.00;86.50;;;;;;5035204;28;20168;-86
2023/07/04 02:15:39;;;;;;;6.25;5.65;;;22.00;86.50;;;;;;5034830;28;20026;-86
2023/07/04 02:18:05;;;;;;;5.97;5.38;;;22.00;86.60;;;;;;5035512;28;20048;-86
2023/07/04 02:20:30;;;;;;;6.40;5.80;;;22.00;86.70;;;;;;5035551;28;20032;-86
2023/07/04 02:22:56;;;;;;;5.60;5.10;;;22.00;86.70;;;;;;5036429;28;20030;-86
2023/07/04 02:25:22;;;;;;;6.40;5.80;;;22.00;86.90;;;;;;5036969;28;20104;-86
2023/07/04 02:27:48;;;;;;;6.80;6.10;;;22.10;87.10;;;;;;5037034;28;20021;-86
2023/07/04 02:30:13;;;;;;;6.47;5.82;;;22.10;87.10;;;;;;5036049;28;20030;-86
2023/07/04 02:32:39;;;;;;;6.80;5.65;;;22.10;87.20;;;;;;5035543;28;20030;-86
2023/07/04 02:35:05;;;;;;;6.30;5.55;;;22.10;87.40;;;;;;5035200;28;20052;-86
2023/07/04 02:37:31;;;;;;;6.28;5.68;;;22.20;87.60;;;;;;5034704;28;20397;-86
2023/07/04 02:39:57;;;;;;;7.63;6.07;;;22.20;87.70;;;;;;5034537;28;20405;-86
2023/07/04 02:42:22;;;;;;;6.30;5.70;;;22.20;87.70;;;;;;5035688;28;20068;-86
2023/07/04 02:44:50;;;;;;;6.43;5.72;;;22.20;87.70;;;;;;5034607;28;20484;-86
2023/07/04 02:47:17;;;;;;;6.70;6.00;;;22.20;87.90;;;;;;5034496;28;20026;-86
2023/07/04 02:49:44;;;;;;;6.93;6.22;;;22.30;88.10;;;;;;5034654;28;20214;-86
2023/07/04 02:52:13;;;;;;;7.40;6.20;;;22.30;88.30;;;;;;5035989;28;20021;-86
2023/07/04 02:54:38;;;;;;;6.88;6.18;;;22.30;88.40;;;;;;5034848;28;20080;-86
2023/07/04 02:57:05;;;;;;;5.97;5.38;;;22.30;88.50;;;;;;5034469;28;20034;-86
2023/07/04 02:59:31;;;;;;;6.47;5.85;;;22.40;88.80;;;;;;5034898;28;20025;-86
2023/07/04 03:01:57;;;;;;;6.32;5.72;;;22.40;88.80;;;;;;5034440;28;20084;-86
2023/07/04 03:04:25;;;;;;;6.38;5.72;;;22.40;88.70;;;;;;5035100;28;20515;-86
2023/07/04 03:06:51;;;;;;;6.28;5.68;;;22.50;88.70;;;;;;5035826;28;20049;-86
2023/07/04 03:09:16;;;;;;;7.25;5.47;;;22.50;88.70;;;;;;5034592;28;20022;-86
2023/07/04 03:11:42;;;;;;;5.93;5.38;;;22.60;88.50;;;;;;5034512;28;20030;-86
2023/07/04 03:14:08;;;;;;;7.25;6.38;;;22.60;88.50;;;;;;5034586;28;20120;-86
2023/07/04 03:16:33;;;;;;;6.72;6.03;;;22.70;88.40;;;;;;5035474;28;20120;-86
2023/07/04 03:18:59;;;;;;;6.10;5.50;;;22.70;88.20;;;;;;5034589;28;20029;-85
2023/07/04 03:21:25;;;;;;;6.50;5.75;;;22.80;88.20;;;;;;5018242;28;20120;-85
2023/07/04 03:23:50;;;;;;;7.15;6.28;;;22.90;88.00;;;;;;5073236;28;20041;-85
2023/07/04 03:26:17;;;;;;;6.50;5.88;;;22.90;87.80;;;;;;5056144;28;20104;-86
2023/07/04 03:28:42;;;;;;;6.60;6.00;;;23.00;87.70;;;;;;5055927;28;20124;-86
2023/07/04 03:31:10;;;;;;;6.80;6.10;;;23.00;87.60;;;;;;5073315;28;20459;-86
2023/07/04 03:33:36;;;;;;;6.40;5.75;;;23.10;87.40;;;;;;5056819;28;20024;-86
2023/07/04 03:36:02;;;;;;;6.50;5.90;;;23.10;87.10;;;;;;5057579;28;20021;-86
2023/07/04 03:38:28;;;;;;;6.25;5.65;;;23.20;87.20;;;;;;5056501;28;20051;-86
2023/07/04 03:40:54;;;;;;;6.57;5.97;;;23.20;87.30;;;;;;5073036;28;20040;-86
2023/07/04 03:43:20;;;;;;;6.88;6.18;;;23.40;87.40;;;;;;5056217;28;20025;-86
2023/07/04 03:45:46;;;;;;;6.30;5.70;;;23.50;87.00;;;;;;5056385;28;20101;-86
2023/07/04 03:48:12;;;;;;;6.15;5.55;;;23.80;87.20;;;;;;5072652;28;20028;-86
2023/07/04 03:50:39;;;;;;;6.43;5.82;;;24.20;87.40;;;;;;5034856;28;20025;-86
2023/07/04 03:53:04;;;;;;;6.00;5.40;;;24.80;86.30;;;;;;5033605;28;20445;-86
2023/07/04 03:55:30;;;;;;;6.45;5.85;;;25.40;85.00;;;;;;5032820;28;20036;-86
2023/07/04 03:57:56;;;;;;;5.68;5.18;;;26.20;83.20;;;;;;5033758;28;20101;-86
2023/07/04 04:00:21;;;;;;;5.90;5.35;;;27.00;81.50;;;;;;5032980;28;20032;-86
2023/07/04 04:02:50;;;;;;;5.10;4.60;;;27.80;79.60;;;;;;5033553;28;20029;-86
2023/07/04 04:05:17;;;;;;;5.88;5.28;;;28.50;77.80;;;;;;5033240;28;20025;-86
2023/07/04 04:07:42;;;;;;;6.50;5.32;;;29.20;76.10;;;;;;5033067;28;20049;-86
2023/07/04 04:10:09;;;;;;;5.43;4.85;;;29.90;74.40;;;;;;5032830;28;20036;-86
2023/07/04 04:12:35;;;;;;;5.30;4.80;;;30.60;72.70;;;;;;5032815;28;20052;-86
2023/07/04 04:15:02;;;;;;;4.95;4.53;;;31.20;71.00;;;;;;5034907;28;20014;-86
2023/07/04 04:17:28;;;;;;;5.00;4.28;;;31.80;69.70;;;;;;5032869;28;20397;-86
2023/07/04 04:19:56;;;;;;;4.43;4.03;;;32.40;68.20;;;;;;5033272;28;20022;-86
2023/07/04 04:22:22;;;;;;;4.53;4.13;;;33.00;67.10;;;;;;5033235;28;20531;-86
2023/07/04 04:24:47;;;;;;;4.95;3.60;;;33.60;65.70;;;;;;5034422;28;20029;-86
2023/07/04 04:27:13;;;;;;;3.88;3.50;;;34.10;64.40;;;;;;5033540;28;20031;-86
2023/07/04 04:29:39;;;;;;;3.97;3.38;;;34.60;62.80;;;;;;5034457;28;20023;-87
2023/07/04 04:32:05;;;;;;;3.50;3.20;;;35.10;61.00;;;;;;5033214;28;20026;-87
2023/07/04 04:34:31;;;;;;;3.45;3.10;;;35.50;59.70;;;;;;5034666;28;20022;-86
2023/07/04 04:36:56;;;;;;;3.25;2.95;;;35.90;59.00;;;;;;5032981;28;20144;-86
2023/07/04 04:39:22;;;;;;;3.47;3.17;;;36.30;58.10;;;;;;5033671;28;20037;-87
2023/07/04 04:41:52;;;;;;;3.40;3.10;;;36.60;57.40;;;;;;5041931;28;20072;-88
2023/07/04 04:44:18;;;;;;;3.63;3.22;;;37.00;56.70;;;;;;5047291;28;20032;-88
2023/07/04 04:46:48;;;;;;;3.17;2.88;;;37.30;56.00;;;;;;5046772;28;20033;-87
2023/07/04 04:49:17;;;;;;;3.22;2.92;;;37.60;55.20;;;;;;5050773;28;20006;-87
2023/07/04 04:51:44;;;;;;;3.28;2.97;;;37.90;54.70;;;;;;5052612;28;20037;-88
2023/07/04 04:54:13;;;;;;;3.55;3.25;;;38.20;54.10;;;;;;5051369;28;20041;-88
2023/07/04 04:56:40;;;;;;;3.33;3.00;;;38.40;53.30;;;;;;5051061;28;20029;-88
2023/07/04 04:59:08;;;;;;;3.22;2.92;;;38.60;53.10;;;;;;5049011;28;20013;-89
2023/07/04 05:01:36;;;;;;;3.80;3.20;;;38.80;52.60;;;;;;5036410;28;20045;-90
2023/07/04 05:04:03;;;;;;;3.83;3.42;;;38.90;52.20;;;;;;5054160;28;20022;-92
2023/07/04 05:06:29;;;;;;;3.30;3.00;;;39.10;51.90;;;;;;5050972;28;20076;-86
2023/07/04 05:08:55;;;;;;;3.55;3.25;;;39.30;51.50;;;;;;5052849;28;20769;-91
2023/07/04 05:11:24;;;;;;;4.47;3.53;;;39.40;51.20;;;;;;5041146;28;20045;-88
2023/07/04 05:13:51;;;;;;;3.80;3.40;;;39.50;50.80;;;;;;5046150;28;20120;-89
2023/07/04 05:16:20;;;;;;;3.80;3.28;;;39.60;50.60;;;;;;5044641;28;20030;-90
2023/07/04 05:18:48;;;;;;;3.50;3.20;;;39.70;50.20;;;;;;5040027;28;20087;-87
2023/07/04 05:21:16;;;;;;;3.55;3.25;;;39.70;49.80;;;;;;5040436;28;20066;-90
2023/07/04 05:23:44;;;;;;;3.80;3.50;;;39.70;49.10;;;;;;5043538;28;20049;-92
2023/07/04 05:26:16;;;;;;;3.50;3.20;;;39.60;48.40;;;;;;5047457;28;20060;-92
2023/07/04 05:28:42;;;;;;;3.60;3.22;;;39.30;48.20;;;;;;5042042;28;20105;-91
2023/07/04 05:31:12;;;;;;;4.20;3.33;;;38.80;48.10;;;;;;5043120;28;20129;-91
2023/07/04 05:33:38;;;;;;;4.60;3.97;;;38.00;48.60;;;;;;5043331;28;20056;-89
2023/07/04 05:36:06;;;;;;;3.55;3.25;;;37.20;49.10;;;;;;5043040;28;20022;-92
2023/07/04 05:38:33;;;;;;;3.90;3.50;;;36.30;49.90;;;;;;5044222;28;20025;-93
2023/07/04 05:40:59;;;;;;;4.47;3.75;;;35.50;50.40;;;;;;5042886;28;20026;-91
2023/07/04 05:43:25;;;;;;;4.32;3.92;;;34.70;51.10;;;;;;5044166;28;20032;-92
2023/07/04 05:45:52;;;;;;;4.82;4.32;;;34.00;51.90;;;;;;5041487;28;20034;-88
2023/07/04 05:48:18;;;;;;;4.18;3.78;;;33.40;52.30;;;;;;5029279;28;20026;-88
2023/07/04 05:50:55;;;;;;;4.70;4.03;;;32.80;52.90;;;;;;5018332;28;20152;-91
2023/07/04 05:53:24;;;;;;;4.80;4.25;;;32.30;53.30;;;;;;5015063;28;20070;-88
2023/07/04 05:55:51;;;;;;;4.32;3.92;;;31.80;53.90;;;;;;5020208;28;20037;-91
2023/07/04 05:58:18;;;;;;;5.15;3.97;;;31.40;54.40;;;;;;5019828;28;20029;-90
2023/07/04 06:00:47;;;;;;;4.35;3.92;;;31.10;54.80;;;;;;5016265;28;20092;-89
2023/07/04 06:03:17;;;;;;;4.75;4.25;;;30.80;55.30;;;;;;5023763;28;20034;-88
2023/07/04 06:05:44;;;;;;;4.47;4.07;;;30.60;55.70;;;;;;4991994;28;20044;-91
2023/07/04 06:08:10;;;;;;;4.70;4.20;;;30.30;55.90;;;;;;5006806;28;20075;-91
2023/07/04 06:10:36;;;;;;;4.30;3.80;;;30.20;56.10;;;;;;5025401;28;20033;-90
2023/07/04 06:13:01;;;;;;;6.38;4.35;;;30.00;56.40;;;;;;5024689;28;20116;-89
2023/07/04 06:15:28;;;;;;;5.38;4.10;;;29.80;56.60;;;;;;5021640;28;20042;-90
2023/07/04 06:17:54;;;;;;;5.25;4.38;;;29.70;57.00;;;;;;5029647;28;20025;-87
2023/07/04 06:20:20;;;;;;;4.38;3.97;;;29.50;57.10;;;;;;5025685;28;20109;-89
2023/07/04 06:22:48;;;;;;;4.35;3.95;;;29.40;57.30;;;;;;5029417;28;20021;-87
2023/07/04 06:25:14;;;;;;;4.75;4.25;;;29.30;57.50;;;;;;5040517;28;20015;-91
2023/07/04 06:27:41;;;;;;;4.38;3.85;;;29.20;57.60;;;;;;5018101;28;20101;-90
2023/07/04 06:30:08;;;;;;;5.30;4.80;;;29.10;57.70;;;;;;5028494;28;20029;-88
2023/07/04 06:32:34;;;;;;;4.35;3.95;;;29.10;58.00;;;;;;5025137;28;20041;-91
2023/07/04 06:35:00;;;;;;;4.68;4.18;;;28.90;57.90;;;;;;5039891;28;20025;-90
2023/07/04 06:37:26;;;;;;;5.20;4.50;;;28.90;57.80;;;;;;5023986;28;20129;-86
2023/07/04 06:39:51;;;;;;;4.10;3.65;;;28.80;57.80;;;;;;5024219;28;20068;-87
2023/07/04 06:42:17;;;;;;;4.25;3.78;;;28.70;57.90;;;;;;5047297;23;20073;-85
2023/07/04 06:44:46;;;;;;;4.07;3.67;;;28.70;58.00;;;;;;5024284;28;20042;-85
2023/07/04 06:47:11;;;;;;;5.22;3.97;;;28.60;57.90;;;;;;5042276;28;20060;-80
2023/07/04 06:49:37;;;;;;;4.28;3.83;;;28.60;58.00;;;;;;5029912;28;20040;-80
2023/07/04 06:52:03;;;;;;;6.45;3.90;;;28.60;57.90;;;;;;5036913;28;20033;-80
2023/07/04 06:54:29;;;;;;;4.72;3.95;;;28.60;58.10;;;;;;5029521;28;20064;-86
2023/07/04 06:56:54;;;;;;;4.60;4.20;;;28.50;58.00;;;;;;5025027;28;20429;-86
2023/07/04 06:59:20;;;;;;;4.47;4.07;;;28.50;58.20;;;;;;5025648;28;21373;-87
2023/07/04 07:01:45;;;;;;;4.75;4.13;;;28.40;58.30;;;;;;5031295;28;20091;-87
2023/07/04 07:04:13;;;;;;;4.80;3.70;;;28.40;58.20;;;;;;5027944;28;20169;-87
2023/07/04 07:06:39;;;;;;;4.72;4.22;;;28.40;58.40;;;;;;5025913;28;20399;-87
2023/07/04 07:09:08;;;;;;;4.65;4.00;;;28.40;58.10;;;;;;5020649;28;20034;-87
2023/07/04 07:11:34;;;;;;;4.22;3.65;;;28.30;58.10;;;;;;5025253;28;20033;-88
2023/07/04 07:14:01;;;;;;;5.22;4.45;;;28.30;58.30;;;;;;5026564;28;20551;-87
2023/07/04 07:16:27;;;;;;;5.07;4.50;;;28.30;58.30;;;;;;5038161;28;20029;-82
2023/07/04 07:24:03;;;;;;;5.03;3.97;;;28.30;58.30;;;;;;5952161;22;20106;-83
2023/07/04 07:26:30;;;;;;;4.28;3.88;;;28.20;58.20;;;;;;5484303;22;20054;-81
2023/07/04 07:28:56;;;;;;;4.78;3.92;;;28.20;58.40;;;;;;5029057;28;20045;-80
2023/07/04 07:33:57;;;;;;;5.00;4.03;;;28.20;58.90;;;;;;5122172;23;20044;-84
2023/07/04 07:36:26;;;;;;;4.57;3.65;;;28.10;58.60;;;;;;5038912;28;20042;-85
2023/07/04 07:38:53;;;;;;;5.82;4.85;;;28.20;58.40;;;;;;5016363;28;20037;-82
2023/07/04 07:41:21;;;;;;;5.88;4.20;;;28.10;58.10;;;;;;5023091;28;20052;-85
2023/07/04 07:43:47;;;;;;;4.75;4.07;;;28.10;58.00;;;;;;5018770;28;20029;-83
2023/07/04 07:46:15;;;;;;;4.43;4.03;;;28.10;58.20;;;;;;5020348;28;20033;-83
2023/07/04 07:48:41;;;;;;;4.93;4.25;;;28.10;58.40;;;;;;5021607;28;20037;-88
2023/07/04 07:51:09;;;;;;;4.88;4.20;;;28.10;58.40;;;;;;5026936;28;20029;-87
2023/07/04 07:53:36;;;;;;;5.38;4.10;;;28.10;58.20;;;;;;5021847;28;20045;-90
2023/07/04 07:56:06;;;;;;;4.65;3.55;;;28.00;57.80;;;;;;5020742;28;20033;-90
2023/07/04 07:58:37;;;;;;;6.38;4.10;;;28.00;57.60;;;;;;5027371;28;20090;-90
2023/07/04 08:01:22;;;;;;;4.05;3.60;;;28.00;57.30;;;;;;5058142;28;20060;-86
2023/07/04 08:03:48;;;;;;;5.97;4.07;;;27.90;57.30;;;;;;5062810;28;20021;-89
2023/07/04 08:06:45;;;;;;;4.13;3.70;;;27.90;57.20;;;;;;5055280;28;20079;-88
2023/07/04 08:09:14;;;;;;;3.92;3.40;;;27.90;57.20;;;;;;5038051;28;20128;-89
2023/07/04 08:11:42;;;;;;;5.00;3.90;;;27.90;57.30;;;;;;5078456;28;20033;-87
2023/07/04 08:14:08;;;;;;;5.35;3.90;;;27.90;56.90;;;;;;5059637;28;20040;-88
2023/07/04 08:16:45;;;;;;;4.35;3.95;;;27.80;56.80;;;;;;5051760;28;20017;-88
2023/07/04 08:19:11;;;;;;;4.20;3.80;;;27.80;56.60;;;;;;5045245;28;20029;-89
2023/07/04 08:21:37;;;;;;;4.47;3.78;;;27.80;56.60;;;;;;5051067;28;20021;-89
2023/07/04 08:24:10;;;;;;;5.00;4.43;;;27.80;56.70;;;;;;5049246;28;20029;-89
2023/07/04 08:26:37;;;;;;;5.18;4.30;;;27.80;56.50;;;;;;5055288;28;20034;-91
2023/07/04 08:29:02;;;;;;;4.28;3.83;;;27.80;56.60;;;;;;5068157;28;20035;-89
2023/07/04 08:31:28;;;;;;;6.10;4.40;;;27.80;56.40;;;;;;5053418;28;20033;-89
2023/07/04 08:33:54;;;;;;;8.50;4.47;;;27.70;56.10;;;;;;5044400;28;20052;-89
2023/07/04 08:36:25;;;;;;;4.70;3.85;;;27.70;56.20;;;;;;5062697;28;20029;-91
2023/07/04 08:38:53;;;;;;;6.65;3.60;;;27.70;56.30;;;;;;5058855;28;20025;-92
2023/07/04 08:41:24;;;;;;;6.25;4.20;;;27.70;56.40;;;;;;5049086;28;20056;-91
2023/07/04 08:44:18;;;;;;;4.95;4.03;;;27.70;56.20;;;;;;5051188;28;20068;-90
2023/07/04 08:46:53;;;;;;;5.05;3.85;;;27.70;56.80;;;;;;5065177;23;20054;-51
2023/07/04 08:49:43;;;;;;;5.38;3.83;;;27.70;56.40;;;;;;5019213;28;20054;-52
2023/07/04 08:52:52;;;;;;;5.50;3.55;;;27.70;56.40;;;;;;5017266;28;20025;-50
2023/07/04 08:55:18;;;;;;;4.55;3.80;;;27.60;56.30;;;;;;4986611;28;20131;-52
2023/07/04 08:58:00;;;;;;;3.92;3.53;;;27.50;56.30;;;;;;5016724;28;20049;-51
2023/07/04 09:00:42;;;;;;;5.10;4.13;;;27.50;56.10;;;;;;5022463;28;20041;-53
2023/07/04 09:03:26;;;;;;;5.80;3.95;;;27.50;56.00;;;;;;5012631;28;20033;-49
2023/07/04 09:06:25;;;;;;;5.13;4.03;;;27.40;55.80;;;;;;5017376;28;20065;-52
2023/07/04 09:08:59;;;;;;;4.78;3.90;;;27.40;55.70;;;;;;5024955;28;20261;-50
2023/07/04 09:11:27;;;;;;;4.28;3.88;;;27.30;55.70;;;;;;5033804;28;20289;-52
2023/07/04 09:14:33;;;;;;;4.35;3.92;;;27.30;55.50;;;;;;5029533;28;20044;-49
2023/07/04 09:17:04;;;;;;;4.15;3.45;;;27.30;55.50;;;;;;4919878;29;20063;-54
2023/07/04 09:19:35;;;;;;;4.03;3.58;;;27.30;55.70;;;;;;5005390;28;20042;-53
2023/07/04 09:22:05;;;;;;;4.50;3.63;;;27.20;55.60;;;;;;5023895;28;20022;-50
2023/07/04 09:24:30;;;;;;;4.43;3.90;;;27.20;55.90;;;;;;5023181;28;20041;-53
2023/07/04 09:26:56;;;;;;;4.07;3.67;;;27.20;56.20;;;;;;5016243;28;20734;-52
2023/07/04 09:29:24;;;;;;;4.78;3.85;;;27.20;56.20;;;;;;5027621;28;20024;-52
2023/07/04 09:31:56;;;;;;;4.30;3.60;;;27.20;55.90;;;;;;5028584;28;20068;-49
2023/07/04 09:34:46;;;;;;;4.07;3.67;;;27.20;55.80;;;;;;5025278;28;20042;-49
2023/07/04 09:37:15;;;;;;;5.32;3.90;;;27.10;55.70;;;;;;5025510;28;20014;-48
2023/07/04 09:39:54;;;;;;;4.50;3.15;;;27.10;55.90;;;;;;5026322;28;20034;-48
2023/07/04 09:42:23;;;;;;;3.90;3.53;;;27.10;56.00;;;;;;5049538;23;20068;-87
2023/07/04 09:44:53;;;;;;;5.05;3.60;;;27.10;56.20;;;;;;5022651;28;20029;-86
2023/07/04 09:47:40;;;;;;;3.95;3.50;;;27.00;56.30;;;;;;5037981;23;20700;-87
2023/07/04 09:50:37;;;;;;;5.65;3.42;;;27.00;56.30;;;;;;5004999;28;20034;-87
2023/07/04 09:53:17;;;;;;;3.60;3.20;;;26.90;56.20;;;;;;4993560;28;20041;-85
2023/07/04 09:56:11;;;;;;;4.05;3.40;;;26.90;56.20;;;;;;4988892;28;20104;-88
2023/07/04 09:58:37;;;;;;;4.00;3.20;;;26.90;56.10;;;;;;4982076;28;20109;-84
2023/07/04 10:01:38;;;;;;;4.05;3.40;;;26.90;56.20;;;;;;4987492;28;20128;-88
2023/07/04 10:09:20;;;;;;;5.20;3.20;;;26.80;56.00;;;;;;5041997;28;20062;-86
2023/07/04 10:11:48;;;;;;;4.95;3.30;;;26.80;56.20;;;;;;5041939;28;20465;-84
2023/07/04 10:14:16;;;;;;;4.50;3.17;;;26.80;56.20;;;;;;5042766;28;20031;-85
2023/07/04 10:16:48;;;;;;;4.28;3.38;;;26.70;56.00;;;;;;5033146;28;20013;-89
2023/07/04 10:19:20;;;;;;;4.25;3.60;;;26.70;56.20;;;;;;5032708;28;20472;-88
2023/07/04 10:21:51;;;;;;;5.10;3.50;;;26.70;56.20;;;;;;5040021;28;20120;-83
2023/07/04 10:24:27;;;;;;;5.28;3.63;;;26.70;56.20;;;;;;5042310;28;20424;-84
2023/07/04 10:27:13;;;;;;;3.58;3.15;;;26.70;55.90;;;;;;5031783;28;20040;-84
2023/07/04 10:29:52;;;;;;;4.57;3.33;;;26.70;55.80;;;;;;5042962;28;20139;-84
2023/07/04 10:32:18;;;;;;;3.67;3.17;;;26.70;55.80;;;;;;5042782;28;20052;-84
2023/07/04 10:34:49;;;;;;;3.95;3.10;;;26.70;56.00;;;;;;5030521;28;20123;-86
2023/07/04 10:37:36;;;;;;;3.78;3.05;;;26.70;55.80;;;;;;5027140;28;20033;-85
2023/07/04 10:40:05;;;;;;;5.65;3.75;;;26.70;55.80;;;;;;5025162;28;20023;-88
2023/07/04 10:42:52;;;;;;;4.93;3.67;;;26.60;55.70;;;;;;5025544;28;20048;-85
2023/07/04 10:45:21;;;;;;;5.07;3.53;;;26.60;55.60;;;;;;5032893;28;20034;-87
2023/07/04 10:47:52;;;;;;;4.97;3.60;;;26.60;55.70;;;;;;5033069;28;20029;-85
2023/07/04 10:50:28;;;;;;;4.82;3.40;;;26.60;55.60;;;;;;5058901;28;20029;-85
2023/07/04 10:52:54;;;;;;;4.10;3.17;;;26.60;55.40;;;;;;5050407;28;20036;-85
2023/07/04 10:55:34;;;;;;;4.35;3.13;;;26.60;55.40;;;;;;5030599;28;20645;-84
2023/07/04 10:58:16;;;;;;;3.53;3.00;;;26.60;55.50;;;;;;5026264;28;20393;-84
2023/07/04 11:00:58;;;;;;;6.32;3.15;;;26.60;55.60;;;;;;5030968;28;20036;-84
2023/07/04 11:03:37;;;;;;;4.35;3.47;;;26.60;55.60;;;;;;5026035;28;20100;-84
2023/07/04 11:06:10;;;;;;;6.22;3.63;;;26.60;55.70;;;;;;5023840;28;20373;-85
2023/07/04 11:08:38;;;;;;;4.10;3.70;;;26.60;55.60;;;;;;5027185;28;20075;-86
2023/07/04 11:11:13;;;;;;;3.35;2.92;;;26.60;55.50;;;;;;5029814;28;20448;-85
2023/07/04 11:13:52;;;;;;;3.85;3.08;;;26.60;55.40;;;;;;5034780;28;20015;-87
2023/07/04 11:16:27;;;;;;;4.60;2.95;;;26.60;55.40;;;;;;5053035;28;20041;-87
2023/07/04 11:19:03;;;;;;;4.03;3.15;;;26.60;55.40;;;;;;5045228;23;20053;-52
2023/07/04 11:24:18;;;;;;;3.30;2.95;;;26.60;55.40;;;;;;5075331;23;20470;-85
2023/07/04 11:26:58;;;;;;;4.10;3.70;;;26.60;55.40;;;;;;5023759;28;20543;-85
2023/07/04 11:32:02;;;;;;;4.63;3.55;;;26.60;55.30;;;;;;5312385;22;20398;-86
2023/07/04 11:34:52;;;;;;;5.38;3.10;;;26.50;55.20;;;;;;5016184;28;20057;-88
2023/07/04 11:37:30;;;;;;;4.13;3.45;;;26.50;55.40;;;;;;5023491;28;20026;-86
2023/07/04 11:40:00;;;;;;;4.80;3.38;;;26.50;55.50;;;;;;5004980;28;20025;-87
2023/07/04 11:42:44;;;;;;;5.15;3.63;;;26.50;55.40;;;;;;5007972;28;20021;-85
2023/07/04 11:45:18;;;;;;;5.53;3.70;;;26.50;55.20;;;;;;5022629;28;20033;-88
2023/07/04 11:47:53;;;;;;;4.18;3.30;;;26.50;55.20;;;;;;5048833;28;20113;-88
2023/07/04 11:50:27;;;;;;;3.78;3.00;;;26.50;55.30;;;;;;5019639;28;20057;-91
2023/07/04 11:52:57;;;;;;;5.00;3.60;;;26.50;55.40;;;;;;5013420;28;20091;-88
2023/07/04 11:55:34;;;;;;;5.30;3.80;;;26.50;55.20;;;;;;5016963;28;20025;-88
2023/07/04 11:58:09;;;;;;;4.97;3.65;;;26.50;55.20;;;;;;5014306;28;20049;-88
2023/07/04 12:00:40;;;;;;;5.00;3.70;;;26.50;55.20;;;;;;5036053;28;20033;-88
2023/07/04 12:05:42;;;;;;;5.40;3.65;;;26.50;55.20;;;;;;5387882;23;20099;-89
2023/07/04 12:08:14;;;;;;;3.30;3.00;;;26.50;55.10;;;;;;5017555;28;20107;-87
2023/07/04 12:10:39;;;;;;;5.05;3.55;;;26.50;55.10;;;;;;5017557;28;20060;-88
2023/07/04 12:13:07;;;;;;;4.70;3.40;;;26.50;55.20;;;;;;5017312;28;20065;-88
2023/07/04 12:20:43;;;;;;;4.65;3.88;;;26.50;55.30;;;;;;5968025;23;20279;-88
2023/07/04 12:23:12;;;;;;;6.13;4.05;;;26.50;55.40;;;;;;5181528;23;20041;-89
2023/07/04 12:25:44;;;;;;;4.93;3.70;;;26.50;55.50;;;;;;5025260;28;20363;-87
2023/07/04 12:28:12;;;;;;;4.68;3.72;;;26.50;55.60;;;;;;5027514;28;20071;-89
2023/07/04 12:30:39;;;;;;;4.45;3.92;;;26.50;55.70;;;;;;5028253;28;20037;-88
2023/07/04 12:33:21;;;;;;;4.47;3.63;;;26.50;55.80;;;;;;5030333;28;20026;-88
2023/07/04 12:35:54;;;;;;;3.95;3.55;;;26.50;55.80;;;;;;5027958;28;21650;-88
2023/07/04 12:38:22;;;;;;;5.45;3.67;;;26.50;55.80;;;;;;5028391;28;20112;-87
2023/07/04 12:40:52;;;;;;;4.70;3.83;;;26.50;55.90;;;;;;5000282;28;20160;-90
2023/07/04 12:43:20;;;;;;;4.47;3.58;;;26.40;55.80;;;;;;5003280;28;20054;-89
2023/07/04 12:45:46;;;;;;;5.45;3.50;;;26.40;56.00;;;;;;5074967;23;20027;-87
2023/07/04 12:48:16;;;;;;;4.97;4.10;;;26.40;56.10;;;;;;5379800;23;20467;-90
2023/07/04 12:50:52;;;;;;;5.15;4.10;;;26.40;56.20;;;;;;5033472;28;20049;-84
2023/07/04 12:53:26;;;;;;;5.18;3.85;;;26.40;56.40;;;;;;5034360;28;20432;-88
2023/07/04 12:56:00;;;;;;;4.70;3.58;;;26.40;57.00;;;;;;5000493;28;20504;-89
2023/07/04 12:58:35;;;;;;;4.35;3.35;;;26.40;56.50;;;;;;5067136;28;20044;-89
2023/07/04 13:01:41;;;;;;;4.80;3.80;;;26.40;56.50;;;;;;5032496;28;20059;-88
2023/07/04 13:08:02;;;;;;;4.47;3.72;;;26.40;56.30;;;;;;4934465;29;20081;-88
2023/07/04 13:10:52;;;;;;;;;;;;;;;;;;;;;
2023/07/04 13:14:14;;;;;;;4.32;3.35;;;26.40;56.50;;;;;;4937668;28;20456;-90
2023/07/04 13:17:12;;;;;;;4.13;3.28;;;26.40;56.50;;;;;;4869834;29;20049;-90
2023/07/04 13:20:34;;;;;;;4.90;3.78;;;26.30;56.70;;;;;;4881403;29;20213;-89
2023/07/04 13:23:22;;;;;;;4.40;3.50;;;26.30;56.60;;;;;;4930704;29;20028;-87
2023/07/04 13:25:49;;;;;;;5.88;3.83;;;26.30;56.90;;;;;;4907904;29;20024;-88
2023/07/04 13:41:24;;;;;;;3.80;3.40;;;26.30;57.30;;;;;;5047381;28;20041;-90
2023/07/04 13:43:50;;;;;;;4.05;3.58;;;26.30;57.40;;;;;;5038727;28;20028;-89
2023/07/04 13:46:18;;;;;;;3.92;3.40;;;26.30;57.70;;;;;;5024223;28;20052;-91
2023/07/04 13:48:47;;;;;;;6.03;3.75;;;26.30;57.60;;;;;;5024435;28;20025;-89